Data Viewer
| City | State | Eastern Time | Source | Temp | DewPt | RH | BP | 5 Min Precip | Wind Speed | Wind Dir | 5 Min Wind Max | 5 Min Wind Max Dir |
|---|---|---|---|---|---|---|---|---|---|---|---|---|
| Caldwell | NJ | 2026-05-04 18:30 | ASOS | 72 | 36 | 27 | 29.78 | 0.00 | 10 | WSW | ||
| Caldwell | NJ | 2026-05-05 11:05 | ASOS | 75 | 50 | 41 | 29.84 | 0.00 | 7 | SSW | ||
| Caldwell | NJ | 2026-05-05 11:35 | ASOS | 75 | 48 | 39 | 29.83 | 0.00 | 7 | WSW | ||
| Caldwell | NJ | 2026-05-05 11:30 | ASOS | 75 | 48 | 39 | 29.83 | 0.00 | ||||
| Caldwell | NJ | 2026-05-05 11:25 | ASOS | 75 | 50 | 41 | 29.84 | 0.00 | 7 | SSW | ||
| Caldwell | NJ | 2026-05-05 11:20 | ASOS | 75 | 48 | 39 | 29.84 | 0.00 | 7 | SSW | ||
| Caldwell | NJ | 2026-05-05 11:15 | ASOS | 75 | 48 | 39 | 29.84 | 0.00 | 7 | SSW | ||
| Caldwell | NJ | 2026-05-05 11:10 | ASOS | 75 | 50 | 41 | 29.84 | 0.00 | 7 | SSW | ||
| Caldwell | NJ | 2026-05-05 11:00 | ASOS | 73 | 50 | 44 | 29.84 | 0.00 | ||||
| Caldwell | NJ | 2026-05-05 11:45 | ASOS | 75 | 48 | 39 | 29.83 | 0.00 | 5 | SW | ||
| Caldwell | NJ | 2026-05-05 10:55 | ASOS | 73 | 48 | 41 | 29.84 | 0.00 | 6 | WSW | ||
| Caldwell | NJ | 2026-05-05 10:53 | ASOS | 74 | 49 | 41 | 29.84 | |||||
| Caldwell | NJ | 2026-05-05 10:50 | ASOS | 73 | 48 | 41 | 29.84 | 0.00 | 3 | SW | ||
| Caldwell | NJ | 2026-05-05 10:45 | ASOS | 73 | 48 | 41 | 29.85 | 0.00 | 8 | WSW | ||
| Caldwell | NJ | 2026-05-05 10:40 | ASOS | 73 | 50 | 44 | 29.85 | 0.00 | 8 | WSW | ||
| Caldwell | NJ | 2026-05-05 10:35 | ASOS | 72 | 50 | 47 | 29.86 | 0.00 | 6 | WSW | ||
| Caldwell | NJ | 2026-05-05 10:30 | ASOS | 72 | 48 | 43 | 29.86 | 0.00 | 7 | SSW | ||
| Caldwell | NJ | 2026-05-05 11:40 | ASOS | 75 | 48 | 39 | 29.83 | 0.00 | 7 | SW | ||
| Caldwell | NJ | 2026-05-05 11:50 | ASOS | 75 | 50 | 41 | 29.83 | 0.00 | 8 | W | ||
| Caldwell | NJ | 2026-05-05 10:20 | ASOS | 72 | 48 | 43 | 29.86 | 0.00 | 12 | WSW | ||
| Caldwell | NJ | 2026-05-05 12:35 | ASOS | 79 | 48 | 34 | 29.81 | 0.00 | 8 | SSW | ||
| Caldwell | NJ | 2026-05-05 13:05 | ASOS | 81 | 48 | 32 | 29.80 | 0.00 | 8 | SSW | ||
| Caldwell | NJ | 2026-05-05 13:00 | ASOS | 81 | 48 | 32 | 29.80 | 0.00 | ||||
| Caldwell | NJ | 2026-05-05 12:53 | ASOS | 80 | 49 | 34 | 29.80 | 9 | SW | |||
| Caldwell | NJ | 2026-05-05 12:50 | ASOS | 81 | 48 | 32 | 29.80 | 0.00 | 10 | SSW | ||
| Caldwell | NJ | 2026-05-05 12:45 | ASOS | 81 | 48 | 32 | 29.81 | 0.00 | 5 | SW | ||
| Caldwell | NJ | 2026-05-05 12:40 | ASOS | 81 | 50 | 35 | 29.81 | 0.00 | 7 | W | ||
| Caldwell | NJ | 2026-05-05 12:30 | ASOS | 79 | 48 | 34 | 29.81 | 0.00 | 10 | WSW | ||
| Caldwell | NJ | 2026-05-05 11:53 | ASOS | 77 | 49 | 37 | 29.83 | 8 | W | |||
| Caldwell | NJ | 2026-05-05 12:25 | ASOS | 79 | 50 | 37 | 29.82 | 0.00 | 12 | WSW | ||
| Caldwell | NJ | 2026-05-05 12:20 | ASOS | 79 | 50 | 37 | 29.82 | 0.00 | 10 | WSW | ||
| Caldwell | NJ | 2026-05-05 12:15 | ASOS | 79 | 50 | 37 | 29.82 | 0.00 | 9 | SW | ||
| Caldwell | NJ | 2026-05-05 12:10 | ASOS | 79 | 48 | 34 | 29.82 | 0.00 | 9 | SW | ||
| Caldwell | NJ | 2026-05-05 12:05 | ASOS | 77 | 48 | 36 | 29.82 | 0.00 | 10 | SSW | ||
| Caldwell | NJ | 2026-05-05 12:00 | ASOS | 77 | 50 | 39 | 29.83 | 0.00 | 8 | SW | ||
| Caldwell | NJ | 2026-05-05 11:55 | ASOS | 77 | 48 | 36 | 29.83 | 0.00 | 8 | WSW | ||
| Caldwell | NJ | 2026-05-05 10:25 | ASOS | 72 | 48 | 43 | 29.86 | 0.00 | 8 | WSW | ||
| Caldwell | NJ | 2026-05-05 10:15 | ASOS | 72 | 48 | 43 | 29.86 | 0.00 | 8 | WSW | ||
| Caldwell | NJ | 2026-05-05 13:15 | ASOS | 81 | 48 | 32 | 29.80 | 0.00 | 13 | SW | ||
| Caldwell | NJ | 2026-05-05 08:05 | ASOS | 61 | 50 | 68 | 29.86 | 0.00 | 7 | WSW | ||
| Caldwell | NJ | 2026-05-05 08:35 | ASOS | 63 | 50 | 63 | 29.84 | 0.00 | 8 | WSW | ||
| Caldwell | NJ | 2026-05-05 08:30 | ASOS | 63 | 50 | 63 | 29.85 | 0.00 | 5 | WSW | ||
| Caldwell | NJ | 2026-05-05 08:25 | ASOS | 63 | 50 | 63 | 29.85 | 0.00 | 6 | SW | ||
| Caldwell | NJ | 2026-05-05 08:20 | ASOS | 63 | 52 | 68 | 29.85 | 0.00 | 6 | SW | ||
| Caldwell | NJ | 2026-05-05 08:15 | ASOS | 63 | 52 | 68 | 29.85 | 0.00 | 3 | SW | ||
| Caldwell | NJ | 2026-05-05 08:10 | ASOS | 61 | 52 | 72 | 29.85 | 0.00 | 5 | WSW | ||
| Caldwell | NJ | 2026-05-05 08:00 | ASOS | 61 | 52 | 72 | 29.86 | 0.00 | 6 | WSW | ||
| Caldwell | NJ | 2026-05-05 08:45 | ASOS | 64 | 50 | 60 | 29.84 | 0.00 | 8 | WSW | ||
| Caldwell | NJ | 2026-05-05 07:53 | ASOS | 60 | 51 | 72 | 29.85 | 5 | ||||
| Caldwell | NJ | 2026-05-05 07:50 | ASOS | 61 | 52 | 72 | 29.85 | 0.00 | 5 | WSW | ||
| Caldwell | NJ | 2026-05-05 07:40 | ASOS | 59 | 52 | 77 | 29.85 | 0.00 | 5 | SW | ||
| Caldwell | NJ | 2026-05-05 07:35 | ASOS | 59 | 50 | 72 | 29.85 | 0.00 | 3 | SSW | ||
| Caldwell | NJ | 2026-05-05 07:30 | ASOS | 59 | 50 | 72 | 29.85 | 0.00 | 6 | SSW | ||
| Caldwell | NJ | 2026-05-05 07:25 | ASOS | 59 | 50 | 72 | 29.85 | 0.00 | 7 | SSW | ||
| Caldwell | NJ | 2026-05-05 07:20 | ASOS | 57 | 50 | 77 | 29.85 | 0.00 | 6 | SSW | ||
| Caldwell | NJ | 2026-05-05 08:40 | ASOS | 64 | 52 | 64 | 29.84 | 0.00 | 7 | WSW | ||
| Caldwell | NJ | 2026-05-05 08:50 | ASOS | 64 | 50 | 60 | 29.85 | 0.00 | 7 | SW | ||
| Caldwell | NJ | 2026-05-05 10:10 | ASOS | 72 | 50 | 47 | 29.86 | 0.00 | 7 | WSW | ||
| Caldwell | NJ | 2026-05-05 09:35 | ASOS | 68 | 50 | 53 | 29.85 | 0.00 | ||||
| Caldwell | NJ | 2026-05-05 10:05 | ASOS | 70 | 50 | 49 | 29.86 | 0.00 | 9 | WSW | ||
| Caldwell | NJ | 2026-05-05 10:00 | ASOS | 70 | 50 | 49 | 29.85 | 0.00 | 7 | W | ||
| Caldwell | NJ | 2026-05-05 09:55 | ASOS | 70 | 50 | 49 | 29.85 | 0.00 | ||||
| Caldwell | NJ | 2026-05-05 09:53 | ASOS | 70 | 50 | 49 | 29.85 | 3 | ||||
| Caldwell | NJ | 2026-05-05 09:50 | ASOS | 70 | 50 | 49 | 29.85 | 0.00 | 6 | SW | ||
| Caldwell | NJ | 2026-05-05 09:45 | ASOS | 70 | 50 | 49 | 29.85 | 0.00 | 10 | SW | ||
| Caldwell | NJ | 2026-05-05 09:40 | ASOS | 68 | 50 | 53 | 29.85 | 0.00 | 6 | WSW | ||
| Caldwell | NJ | 2026-05-05 09:30 | ASOS | 68 | 50 | 53 | 29.85 | 0.00 | 6 | WSW | ||
| Caldwell | NJ | 2026-05-05 08:53 | ASOS | 65 | 50 | 58 | 29.85 | 9 | SW | |||
| Caldwell | NJ | 2026-05-05 09:25 | ASOS | 66 | 50 | 56 | 29.85 | 0.00 | 9 | SW | ||
| Caldwell | NJ | 2026-05-05 09:20 | ASOS | 66 | 50 | 56 | 29.86 | 0.00 | 9 | WSW | ||
| Caldwell | NJ | 2026-05-05 09:15 | ASOS | 66 | 50 | 56 | 29.86 | 0.00 | 8 | WSW | ||
| Caldwell | NJ | 2026-05-05 09:10 | ASOS | 66 | 50 | 56 | 29.86 | 0.00 | 7 | WSW | ||
| Caldwell | NJ | 2026-05-05 09:05 | ASOS | 66 | 50 | 56 | 29.85 | 0.00 | 6 | SW | ||
| Caldwell | NJ | 2026-05-05 09:00 | ASOS | 66 | 50 | 56 | 29.85 | 0.00 | 10 | WSW | ||
| Caldwell | NJ | 2026-05-05 08:55 | ASOS | 64 | 50 | 60 | 29.85 | 0.00 | 8 | SW | ||
| Caldwell | NJ | 2026-05-05 13:10 | ASOS | 81 | 48 | 32 | 29.80 | 0.00 | 10 | SSW | ||
| Caldwell | NJ | 2026-05-05 13:20 | ASOS | 81 | 48 | 32 | 29.80 | 0.00 | 12 | WSW | ||
| Caldwell | NJ | 2026-05-05 07:10 | ASOS | 57 | 50 | 77 | 29.84 | 0.00 | 5 | S | ||
| Caldwell | NJ | 2026-05-05 17:10 | ASOS | 82 | 43 | 25 | 29.73 | 0.00 | 8 | SW | ||
| Caldwell | NJ | 2026-05-05 17:40 | ASOS | 82 | 41 | 23 | 29.74 | 0.00 | 10 | WSW | ||
| Caldwell | NJ | 2026-05-05 17:35 | ASOS | 82 | 41 | 23 | 29.74 | 0.00 | 10 | WSW | ||
| Caldwell | NJ | 2026-05-05 17:30 | ASOS | 82 | 41 | 23 | 29.74 | 0.00 | 9 | WSW | ||
| Caldwell | NJ | 2026-05-05 17:25 | ASOS | 82 | 41 | 23 | 29.73 | 0.00 | 14 | SW | ||
| Caldwell | NJ | 2026-05-05 17:20 | ASOS | 82 | 41 | 23 | 29.74 | 0.00 | 10 | WSW | ||
| Caldwell | NJ | 2026-05-05 17:15 | ASOS | 82 | 43 | 25 | 29.74 | 0.00 | 13 | SW | ||
| Caldwell | NJ | 2026-05-05 17:05 | ASOS | 82 | 43 | 25 | 29.73 | 0.00 | 9 | SW | ||
| Caldwell | NJ | 2026-05-05 17:50 | ASOS | 82 | 39 | 22 | 29.74 | 0.00 | 7 | SW | ||
| Caldwell | NJ | 2026-05-05 17:00 | ASOS | 82 | 43 | 25 | 29.73 | 0.00 | 15 | SW | ||
| Caldwell | NJ | 2026-05-05 16:53 | ASOS | 82 | 41 | 23 | 29.73 | 13 | SW | |||
| Caldwell | NJ | 2026-05-05 16:50 | ASOS | 82 | 41 | 23 | 29.73 | 0.00 | 13 | SW | ||
| Caldwell | NJ | 2026-05-05 16:45 | ASOS | 82 | 41 | 23 | 29.74 | 0.00 | 15 | SW | ||
| Caldwell | NJ | 2026-05-05 16:40 | ASOS | 82 | 41 | 23 | 29.74 | 0.00 | 12 | WSW | ||
| Caldwell | NJ | 2026-05-05 16:35 | ASOS | 82 | 39 | 22 | 29.74 | 0.00 | 13 | WSW | ||
| Caldwell | NJ | 2026-05-05 16:30 | ASOS | 82 | 41 | 23 | 29.74 | 0.00 | 14 | WSW | ||
| Caldwell | NJ | 2026-05-05 17:45 | ASOS | 82 | 41 | 23 | 29.74 | 0.00 | 13 | SW | ||
| Caldwell | NJ | 2026-05-05 17:53 | ASOS | 82 | 40 | 22 | 29.75 | 12 | SW | |||
| Caldwell | NJ | 2026-05-05 16:20 | ASOS | 82 | 43 | 25 | 29.74 | 0.00 | 12 | WSW | ||
| Caldwell | NJ | 2026-05-05 00:10 | ASOS | 0.00 | ||||||||
| Caldwell | NJ | 2026-05-05 16:55 | ASOS | 0.00 | ||||||||
| Caldwell | NJ | 2026-05-05 12:55 | ASOS | 0.00 | ||||||||
| Caldwell | NJ | 2026-05-05 07:55 | ASOS | 0.00 | ||||||||
| Caldwell | NJ | 2026-05-05 07:45 | ASOS | 0.00 | ||||||||
| Caldwell | NJ | 2026-05-05 05:15 | ASOS | 0.00 | ||||||||
| Caldwell | NJ | 2026-05-05 03:55 | ASOS | 0.00 | ||||||||
| Caldwell | NJ | 2026-05-05 01:10 | ASOS | 0.00 | ||||||||
| Caldwell | NJ | 2026-05-05 00:00 | ASOS | 0.00 | ||||||||
| Caldwell | NJ | 2026-05-05 18:00 | ASOS | 82 | 39 | 22 | 29.75 | 0.00 | 10 | WSW | ||
| Caldwell | NJ | 2026-05-04 23:55 | ASOS | 0.00 | ||||||||
| Caldwell | NJ | 2026-05-04 20:55 | ASOS | 0.00 | ||||||||
| Caldwell | NJ | 2026-05-04 20:50 | ASOS | 0.00 | ||||||||
| Caldwell | NJ | 2026-05-04 20:35 | ASOS | 0.00 | ||||||||
| Caldwell | NJ | 2026-05-05 18:15 | ASOS | 81 | 39 | 23 | 29.75 | 8 | SW | |||
| Caldwell | NJ | 2026-05-05 18:10 | ASOS | 82 | 39 | 22 | 29.75 | 0.00 | 8 | SW | ||
| Caldwell | NJ | 2026-05-05 18:05 | ASOS | 82 | 39 | 22 | 29.75 | 0.00 | 9 | WSW | ||
| Caldwell | NJ | 2026-05-05 16:25 | ASOS | 84 | 43 | 23 | 29.73 | 0.00 | 13 | WSW | ||
| Caldwell | NJ | 2026-05-05 16:15 | ASOS | 82 | 43 | 25 | 29.74 | 0.00 | 14 | WSW | ||
| Caldwell | NJ | 2026-05-05 13:25 | ASOS | 81 | 48 | 32 | 29.79 | 0.00 | 8 | SW | ||
| Caldwell | NJ | 2026-05-05 14:05 | ASOS | 82 | 46 | 28 | 29.78 | 0.00 | 9 | SSW | ||
| Caldwell | NJ | 2026-05-05 14:35 | ASOS | 82 | 45 | 27 | 29.77 | 0.00 | 17 | SSW | ||
| Caldwell | NJ | 2026-05-05 14:30 | ASOS | 82 | 45 | 27 | 29.78 | 0.00 | 10 | WSW | ||
| Caldwell | NJ | 2026-05-05 14:25 | ASOS | 82 | 46 | 28 | 29.78 | 0.00 | 15 | WSW | ||
| Caldwell | NJ | 2026-05-05 14:20 | ASOS | 82 | 46 | 28 | 29.77 | 0.00 | 14 | SW | ||
| Caldwell | NJ | 2026-05-05 14:15 | ASOS | 82 | 46 | 28 | 29.78 | 0.00 | 9 | SW | ||
| Caldwell | NJ | 2026-05-05 14:10 | ASOS | 82 | 48 | 30 | 29.78 | 0.00 | 12 | SSW | ||
| Caldwell | NJ | 2026-05-05 14:00 | ASOS | 82 | 46 | 28 | 29.78 | 0.00 | 6 | SW | ||
| Caldwell | NJ | 2026-05-05 14:45 | ASOS | 82 | 45 | 27 | 29.77 | 0.00 | 15 | SW | ||
| Caldwell | NJ | 2026-05-05 13:55 | ASOS | 82 | 46 | 28 | 29.78 | 0.00 | 12 | WSW | ||
| Caldwell | NJ | 2026-05-05 13:53 | ASOS | 82 | 46 | 28 | 29.78 | 12 | SSW | |||
| Caldwell | NJ | 2026-05-05 13:50 | ASOS | 82 | 46 | 28 | 29.78 | 0.00 | 14 | WSW | ||
| Caldwell | NJ | 2026-05-05 13:45 | ASOS | 82 | 46 | 28 | 29.78 | 0.00 | 7 | SW | ||
| Caldwell | NJ | 2026-05-05 13:40 | ASOS | 81 | 48 | 32 | 29.79 | 0.00 | 13 | SW | ||
| Caldwell | NJ | 2026-05-05 13:35 | ASOS | 81 | 48 | 32 | 29.79 | 0.00 | 12 | WSW | ||
| Caldwell | NJ | 2026-05-05 13:30 | ASOS | 81 | 48 | 32 | 29.79 | 0.00 | 13 | SSW | ||
| Caldwell | NJ | 2026-05-05 14:40 | ASOS | 82 | 45 | 27 | 29.78 | 0.00 | 13 | SSW | ||
| Caldwell | NJ | 2026-05-05 14:50 | ASOS | 82 | 45 | 27 | 29.77 | 0.00 | 14 | SW | ||
| Caldwell | NJ | 2026-05-05 16:10 | ASOS | 82 | 43 | 25 | 29.74 | 0.00 | 12 | SW | ||
| Caldwell | NJ | 2026-05-05 15:35 | ASOS | 82 | 45 | 27 | 29.75 | 0.00 | 7 | SW | ||
| Caldwell | NJ | 2026-05-05 16:05 | ASOS | 82 | 43 | 25 | 29.74 | 0.00 | 12 | SW | ||
| Caldwell | NJ | 2026-05-05 16:00 | ASOS | 82 | 41 | 23 | 29.74 | 0.00 | 12 | SW | ||
| Caldwell | NJ | 2026-05-05 15:55 | ASOS | 82 | 43 | 25 | 29.74 | 0.00 | 14 | SW | ||
| Caldwell | NJ | 2026-05-05 15:53 | ASOS | 83 | 43 | 25 | 29.73 | 15 | SW | |||
| Caldwell | NJ | 2026-05-05 15:50 | ASOS | 82 | 43 | 25 | 29.74 | 0.00 | 8 | WSW | ||
| Caldwell | NJ | 2026-05-05 15:45 | ASOS | 82 | 45 | 27 | 29.75 | 0.00 | 14 | SW | ||
| Caldwell | NJ | 2026-05-05 15:40 | ASOS | 82 | 45 | 27 | 29.75 | 0.00 | 14 | SW | ||
| Caldwell | NJ | 2026-05-05 15:30 | ASOS | 82 | 43 | 25 | 29.75 | 0.00 | 13 | SW | ||
| Caldwell | NJ | 2026-05-05 14:53 | ASOS | 83 | 44 | 26 | 29.75 | 14 | SW | |||
| Caldwell | NJ | 2026-05-05 15:25 | ASOS | 82 | 45 | 27 | 29.75 | 0.00 | 13 | SSW | ||
| Caldwell | NJ | 2026-05-05 15:20 | ASOS | 82 | 45 | 27 | 29.76 | 0.00 | 10 | SSW | ||
| Caldwell | NJ | 2026-05-05 15:15 | ASOS | 84 | 45 | 25 | 29.75 | 0.00 | 9 | SW | ||
| Caldwell | NJ | 2026-05-05 15:10 | ASOS | 82 | 45 | 27 | 29.76 | 0.00 | 13 | WSW | ||
| Caldwell | NJ | 2026-05-05 15:05 | ASOS | 82 | 43 | 25 | 29.76 | 0.00 | 10 | WSW | ||
| Caldwell | NJ | 2026-05-05 15:00 | ASOS | 82 | 45 | 27 | 29.76 | 0.00 | 13 | SSW | ||
| Caldwell | NJ | 2026-05-05 14:55 | ASOS | 82 | 45 | 27 | 29.76 | 0.00 | 14 | SSW | ||
| Caldwell | NJ | 2026-05-05 07:15 | ASOS | 57 | 50 | 77 | 29.85 | 0.00 | 3 | SW | ||
| Caldwell | NJ | 2026-05-05 07:05 | ASOS | 57 | 50 | 77 | 29.84 | 0.00 | 5 | SSW | ||
| Caldwell | NJ | 2026-05-04 18:35 | ASOS | 72 | 36 | 27 | 29.78 | 0.00 | 6 | W | ||
| Caldwell | NJ | 2026-05-04 22:30 | ASOS | 64 | 39 | 39 | 29.84 | 0.00 | 5 | SW | ||
| Caldwell | NJ | 2026-05-04 22:55 | ASOS | 64 | 41 | 42 | 29.84 | 0.00 | 5 | SSW | ||
| Caldwell | NJ | 2026-05-04 22:53 | ASOS | 64 | 40 | 41 | 29.84 | 5 | ||||
| Caldwell | NJ | 2026-05-04 22:50 | ASOS | 64 | 39 | 39 | 29.84 | 0.00 | 3 | SW | ||
| Caldwell | NJ | 2026-05-04 22:45 | ASOS | 64 | 39 | 39 | 29.84 | 0.00 | 6 | SW | ||
| Caldwell | NJ | 2026-05-04 22:40 | ASOS | 64 | 39 | 39 | 29.84 | 0.00 | 6 | SW | ||
| Caldwell | NJ | 2026-05-04 22:35 | ASOS | 64 | 39 | 39 | 29.84 | 0.00 | 3 | SSW | ||
| Caldwell | NJ | 2026-05-04 22:25 | ASOS | 64 | 39 | 39 | 29.84 | 0.00 | 3 | SSW | ||
| Caldwell | NJ | 2026-05-04 23:05 | ASOS | 64 | 41 | 42 | 29.84 | 0.00 | 5 | SW | ||
| Caldwell | NJ | 2026-05-04 22:20 | ASOS | 64 | 37 | 37 | 29.84 | 0.00 | 6 | S | ||
| Caldwell | NJ | 2026-05-04 22:15 | ASOS | 64 | 37 | 37 | 29.84 | 0.00 | 5 | S | ||
| Caldwell | NJ | 2026-05-04 22:10 | ASOS | 66 | 37 | 35 | 29.84 | 0.00 | 3 | SW | ||
| Caldwell | NJ | 2026-05-04 22:05 | ASOS | 66 | 37 | 35 | 29.85 | 0.00 | 3 | SSW | ||
| Caldwell | NJ | 2026-05-04 22:00 | ASOS | 66 | 37 | 35 | 29.84 | 0.00 | 3 | SW | ||
| Caldwell | NJ | 2026-05-04 21:55 | ASOS | 66 | 37 | 35 | 29.84 | 0.00 | 5 | SSW | ||
| Caldwell | NJ | 2026-05-04 21:53 | ASOS | 66 | 38 | 36 | 29.84 | 5 | ||||
| Caldwell | NJ | 2026-05-04 23:00 | ASOS | 64 | 41 | 42 | 29.84 | 0.00 | 5 | SSW | ||
| Caldwell | NJ | 2026-05-04 23:10 | ASOS | 64 | 41 | 42 | 29.84 | 0.00 | 6 | SW | ||
| Caldwell | NJ | 2026-05-04 21:45 | ASOS | 66 | 37 | 35 | 29.84 | 0.00 | 3 | SW | ||
| Caldwell | NJ | 2026-05-05 00:05 | ASOS | 63 | 43 | 48 | 29.84 | 0.00 | 6 | SW | ||
| Caldwell | NJ | 2026-05-05 00:40 | ASOS | 61 | 43 | 51 | 29.84 | 0.00 | 0 | N | ||
| Caldwell | NJ | 2026-05-05 00:35 | ASOS | 61 | 43 | 51 | 29.84 | 0.00 | 3 | WSW | ||
| Caldwell | NJ | 2026-05-05 00:30 | ASOS | 61 | 43 | 51 | 29.84 | 0.00 | 3 | WSW | ||
| Caldwell | NJ | 2026-05-05 00:25 | ASOS | 61 | 43 | 51 | 29.84 | 0.00 | 5 | WSW | ||
| Caldwell | NJ | 2026-05-05 00:20 | ASOS | 63 | 43 | 48 | 29.84 | 0.00 | 3 | WSW | ||
| Caldwell | NJ | 2026-05-05 00:15 | ASOS | 63 | 43 | 48 | 29.84 | 0.00 | 5 | WSW | ||
| Caldwell | NJ | 2026-05-04 23:53 | ASOS | 63 | 42 | 46 | 29.84 | 3 | SW | |||
| Caldwell | NJ | 2026-05-04 23:15 | ASOS | 64 | 41 | 42 | 29.84 | 0.00 | 6 | WSW | ||
| Caldwell | NJ | 2026-05-04 23:50 | ASOS | 63 | 43 | 48 | 29.84 | 0.00 | 5 | SW | ||
| Caldwell | NJ | 2026-05-04 23:45 | ASOS | 63 | 43 | 48 | 29.84 | 0.00 | 6 | SSW | ||
| Caldwell | NJ | 2026-05-04 23:40 | ASOS | 63 | 43 | 48 | 29.84 | 0.00 | 6 | SW | ||
| Caldwell | NJ | 2026-05-04 23:35 | ASOS | 63 | 43 | 48 | 29.84 | 0.00 | 5 | SW | ||
| Caldwell | NJ | 2026-05-04 23:30 | ASOS | 63 | 41 | 45 | 29.84 | 0.00 | 6 | SSW | ||
| Caldwell | NJ | 2026-05-04 23:25 | ASOS | 64 | 41 | 42 | 29.84 | 0.00 | 3 | SW | ||
| Caldwell | NJ | 2026-05-04 23:20 | ASOS | 64 | 41 | 42 | 29.84 | 0.00 | 6 | SW | ||
| Caldwell | NJ | 2026-05-04 21:50 | ASOS | 66 | 37 | 35 | 29.84 | 0.00 | 5 | SW | ||
| Caldwell | NJ | 2026-05-04 21:40 | ASOS | 66 | 37 | 35 | 29.84 | 0.00 | 3 | SSW | ||
| Caldwell | NJ | 2026-05-05 00:50 | ASOS | 61 | 44 | 55 | 29.84 | 0.00 | 3 | SW | ||
| Caldwell | NJ | 2026-05-04 19:15 | ASOS | 72 | 37 | 29 | 29.78 | 0.00 | 5 | SW | ||
| Caldwell | NJ | 2026-05-04 19:45 | ASOS | 70 | 37 | 31 | 29.79 | 0.00 | 6 | SW | ||
| Caldwell | NJ | 2026-05-04 19:40 | ASOS | 70 | 37 | 31 | 29.79 | 0.00 | 7 | SW | ||
| Caldwell | NJ | 2026-05-04 19:35 | ASOS | 70 | 37 | 31 | 29.79 | 0.00 | 7 | SW | ||
| Caldwell | NJ | 2026-05-04 19:30 | ASOS | 70 | 37 | 31 | 29.79 | 0.00 | 3 | SW | ||
| Caldwell | NJ | 2026-05-04 19:25 | ASOS | 72 | 37 | 29 | 29.79 | 0.00 | ||||
| Caldwell | NJ | 2026-05-04 19:20 | ASOS | 72 | 37 | 29 | 29.79 | 0.00 | 6 | SW | ||
| Caldwell | NJ | 2026-05-04 19:10 | ASOS | 72 | 37 | 29 | 29.78 | 0.00 | 5 | WSW | ||
| Caldwell | NJ | 2026-05-04 19:53 | ASOS | 70 | 37 | 30 | 29.80 | 6 | SW | |||
| Caldwell | NJ | 2026-05-04 19:05 | ASOS | 72 | 37 | 29 | 29.78 | 0.00 | 5 | SW | ||
| Caldwell | NJ | 2026-05-04 19:00 | ASOS | 72 | 37 | 29 | 29.78 | 0.00 | 7 | SSW | ||
| Caldwell | NJ | 2026-05-04 18:55 | ASOS | 72 | 37 | 29 | 29.78 | 0.00 | 6 | SW | ||
| Caldwell | NJ | 2026-05-04 18:53 | ASOS | 72 | 37 | 28 | 29.78 | 7 | ||||
| Caldwell | NJ | 2026-05-04 18:50 | ASOS | 72 | 36 | 27 | 29.78 | 0.00 | 7 | SW | ||
| Caldwell | NJ | 2026-05-04 18:45 | ASOS | 72 | 36 | 27 | 29.78 | 0.00 | 6 | WSW | ||
| Caldwell | NJ | 2026-05-04 18:40 | ASOS | 72 | 36 | 27 | 29.78 | 0.00 | 9 | SW | ||
| Caldwell | NJ | 2026-05-04 19:50 | ASOS | 70 | 37 | 31 | 29.80 | 0.00 | 6 | SW | ||
| Caldwell | NJ | 2026-05-04 19:55 | ASOS | 70 | 37 | 31 | 29.80 | 0.00 | 6 | SSW | ||
| Caldwell | NJ | 2026-05-04 21:35 | ASOS | 66 | 37 | 35 | 29.84 | 0.00 | 3 | SW | ||
| Caldwell | NJ | 2026-05-04 20:53 | ASOS | 67 | 37 | 33 | 29.82 | 5 | ||||
| Caldwell | NJ | 2026-05-04 21:30 | ASOS | 66 | 37 | 35 | 29.84 | 0.00 | 0 | N | ||
| Caldwell | NJ | 2026-05-04 21:25 | ASOS | 66 | 37 | 35 | 29.84 | 0.00 | 3 | SW | ||
| Caldwell | NJ | 2026-05-04 21:20 | ASOS | 66 | 37 | 35 | 29.84 | 0.00 | 3 | SW | ||
| Caldwell | NJ | 2026-05-04 21:15 | ASOS | 66 | 37 | 35 | 29.83 | 0.00 | 3 | SW | ||
| Caldwell | NJ | 2026-05-04 21:10 | ASOS | 66 | 37 | 35 | 29.83 | 0.00 | 3 | SW | ||
| Caldwell | NJ | 2026-05-04 21:05 | ASOS | 66 | 37 | 35 | 29.83 | 0.00 | 3 | SSW | ||
| Caldwell | NJ | 2026-05-04 21:00 | ASOS | 66 | 37 | 35 | 29.83 | 0.00 | 3 | SSW | ||
| Caldwell | NJ | 2026-05-04 20:45 | ASOS | 68 | 37 | 32 | 29.82 | 0.00 | 3 | SSW | ||
| Caldwell | NJ | 2026-05-04 20:00 | ASOS | 70 | 37 | 31 | 29.80 | 0.00 | 5 | SW | ||
| Caldwell | NJ | 2026-05-04 20:40 | ASOS | 68 | 37 | 32 | 29.82 | 0.00 | 3 | SW | ||
| Caldwell | NJ | 2026-05-04 20:30 | ASOS | 68 | 37 | 32 | 29.82 | 0.00 | 5 | SW | ||
| Caldwell | NJ | 2026-05-04 20:25 | ASOS | 68 | 37 | 32 | 29.82 | 0.00 | 3 | SW | ||
| Caldwell | NJ | 2026-05-04 20:20 | ASOS | 70 | 37 | 31 | 29.81 | 0.00 | 3 | SW | ||
| Caldwell | NJ | 2026-05-04 20:15 | ASOS | 70 | 37 | 31 | 29.81 | 0.00 | 3 | SW | ||
| Caldwell | NJ | 2026-05-04 20:10 | ASOS | 70 | 37 | 31 | 29.81 | 0.00 | 3 | WSW | ||
| Caldwell | NJ | 2026-05-04 20:05 | ASOS | 70 | 37 | 31 | 29.81 | 0.00 | 5 | SSW | ||
| Caldwell | NJ | 2026-05-05 00:45 | ASOS | 61 | 44 | 55 | 29.84 | 0.00 | 3 | WSW | ||
| Caldwell | NJ | 2026-05-05 00:53 | ASOS | 60 | 44 | 55 | 29.84 | 0 | N | |||
| Caldwell | NJ | 2026-05-05 07:00 | ASOS | 57 | 50 | 77 | 29.85 | 0.00 | 5 | S | ||
| Caldwell | NJ | 2026-05-05 04:50 | ASOS | 52 | 45 | 76 | 29.83 | 0.00 | 0 | N | ||
| Caldwell | NJ | 2026-05-05 05:20 | ASOS | 52 | 45 | 76 | 29.83 | 0.00 | 0 | N | ||
| Caldwell | NJ | 2026-05-05 05:10 | ASOS | 52 | 45 | 76 | 29.84 | 0.00 | 0 | N | ||
| Caldwell | NJ | 2026-05-05 05:05 | ASOS | 52 | 45 | 76 | 29.84 | 0.00 | 0 | N | ||
| Caldwell | NJ | 2026-05-05 05:00 | ASOS | 52 | 45 | 76 | 29.83 | 0.00 | 0 | N | ||
| Caldwell | NJ | 2026-05-05 04:55 | ASOS | 52 | 45 | 76 | 29.83 | 0.00 | 0 | N | ||
| Caldwell | NJ | 2026-05-05 04:53 | ASOS | 51 | 45 | 79 | 29.83 | 0 | N | |||
| Caldwell | NJ | 2026-05-05 04:45 | ASOS | 52 | 45 | 76 | 29.83 | 0.00 | 0 | N | ||
| Caldwell | NJ | 2026-05-05 05:30 | ASOS | 52 | 45 | 76 | 29.84 | 0.00 | 3 | WNW | ||
| Caldwell | NJ | 2026-05-05 04:40 | ASOS | 52 | 45 | 76 | 29.83 | 0.00 | 0 | N | ||
| Caldwell | NJ | 2026-05-05 04:35 | ASOS | 52 | 45 | 76 | 29.83 | 0.00 | 3 | NW | ||
| Caldwell | NJ | 2026-05-05 04:30 | ASOS | 52 | 45 | 76 | 29.83 | 0.00 | 0 | N | ||
| Caldwell | NJ | 2026-05-05 04:25 | ASOS | 52 | 45 | 76 | 29.83 | 0.00 | 0 | N | ||
| Caldwell | NJ | 2026-05-05 04:20 | ASOS | 52 | 45 | 76 | 29.83 | 0.00 | 0 | N | ||
| Caldwell | NJ | 2026-05-05 04:15 | ASOS | 52 | 45 | 76 | 29.83 | 0.00 | 0 | N | ||
| Caldwell | NJ | 2026-05-05 04:10 | ASOS | 52 | 45 | 76 | 29.83 | 0.00 | 0 | N | ||
| Caldwell | NJ | 2026-05-05 05:25 | ASOS | 52 | 45 | 76 | 29.84 | 0.00 | 0 | N | ||
| Caldwell | NJ | 2026-05-05 05:35 | ASOS | 52 | 46 | 82 | 29.84 | 0.00 | 3 | W | ||
| Caldwell | NJ | 2026-05-05 04:00 | ASOS | 52 | 45 | 76 | 29.84 | 0.00 | 0 | N | ||
| Caldwell | NJ | 2026-05-05 06:25 | ASOS | 57 | 46 | 67 | 29.85 | 0.00 | 5 | SSW | ||
| Caldwell | NJ | 2026-05-05 06:55 | ASOS | 57 | 50 | 77 | 29.85 | 0.00 | 5 | SSW | ||
| Caldwell | NJ | 2026-05-05 06:53 | ASOS | 58 | 50 | 75 | 29.85 | 5 | SSW | |||
| Caldwell | NJ | 2026-05-05 06:50 | ASOS | 57 | 48 | 72 | 29.85 | 0.01 | 5 | S | ||
| Caldwell | NJ | 2026-05-05 06:45 | ASOS | 57 | 48 | 72 | 29.86 | 0.00 | 5 | W | ||
| Caldwell | NJ | 2026-05-05 06:40 | ASOS | 57 | 48 | 72 | 29.85 | 0.00 | 3 | W | ||
| Caldwell | NJ | 2026-05-05 06:35 | ASOS | 57 | 46 | 67 | 29.85 | 0.00 | 3 | SW | ||
| Caldwell | NJ | 2026-05-05 06:30 | ASOS | 57 | 46 | 67 | 29.85 | 0.00 | 5 | S | ||
| Caldwell | NJ | 2026-05-05 06:20 | ASOS | 57 | 46 | 67 | 29.85 | 0.00 | 7 | SSW | ||
| Caldwell | NJ | 2026-05-05 05:40 | ASOS | 54 | 46 | 77 | 29.84 | 0.00 | 3 | WNW | ||
| Caldwell | NJ | 2026-05-05 06:15 | ASOS | 55 | 46 | 72 | 29.85 | 0.00 | 6 | SSW | ||
| Caldwell | NJ | 2026-05-05 06:10 | ASOS | 55 | 46 | 72 | 29.84 | 0.00 | 6 | SSW | ||
| Caldwell | NJ | 2026-05-05 06:05 | ASOS | 54 | 46 | 77 | 29.85 | 0.00 | 5 | SSW | ||
| Caldwell | NJ | 2026-05-05 06:00 | ASOS | 55 | 46 | 72 | 29.84 | 0.00 | 0 | N | ||
| Caldwell | NJ | 2026-05-05 05:55 | ASOS | 54 | 46 | 77 | 29.85 | 0.00 | 3 | SW | ||
| Caldwell | NJ | 2026-05-05 05:50 | ASOS | 54 | 46 | 77 | 29.85 | 0.00 | 0 | N | ||
| Caldwell | NJ | 2026-05-05 05:45 | ASOS | 54 | 46 | 77 | 29.85 | 0.00 | 3 | W | ||
| Caldwell | NJ | 2026-05-05 04:05 | ASOS | 52 | 45 | 76 | 29.84 | 0.00 | 0 | N | ||
| Caldwell | NJ | 2026-05-05 03:53 | ASOS | 52 | 45 | 77 | 29.84 | 0 | N | |||
| Caldwell | NJ | 2026-05-05 00:55 | ASOS | 61 | 44 | 55 | 29.84 | 0.00 | 3 | WSW | ||
| Caldwell | NJ | 2026-05-05 01:45 | ASOS | 57 | 44 | 63 | 29.83 | 0.00 | 0 | N | ||
| Caldwell | NJ | 2026-05-05 02:10 | ASOS | 55 | 44 | 67 | 29.83 | 0.00 | 3 | WNW | ||
| Caldwell | NJ | 2026-05-05 02:05 | ASOS | 55 | 44 | 67 | 29.83 | 0.00 | 3 | WNW | ||
| Caldwell | NJ | 2026-05-05 02:00 | ASOS | 55 | 44 | 67 | 29.83 | 0.00 | 0 | N | ||
| Caldwell | NJ | 2026-05-05 01:55 | ASOS | 57 | 44 | 63 | 29.83 | 0.00 | 0 | N | ||
| Caldwell | NJ | 2026-05-05 01:53 | ASOS | 57 | 44 | 62 | 29.83 | 0 | N | |||
| Caldwell | NJ | 2026-05-05 01:50 | ASOS | 57 | 44 | 63 | 29.83 | 0.00 | 0 | N | ||
| Caldwell | NJ | 2026-05-05 01:40 | ASOS | 57 | 44 | 63 | 29.83 | 0.00 | 0 | N | ||
| Caldwell | NJ | 2026-05-05 02:20 | ASOS | 55 | 44 | 67 | 29.83 | 0.00 | 0 | N | ||
| Caldwell | NJ | 2026-05-05 01:35 | ASOS | 57 | 44 | 63 | 29.83 | 0.00 | 0 | N | ||
| Caldwell | NJ | 2026-05-05 01:30 | ASOS | 57 | 44 | 63 | 29.84 | 0.00 | 0 | N | ||
| Caldwell | NJ | 2026-05-05 01:25 | ASOS | 57 | 44 | 63 | 29.83 | 0.00 | 0 | N | ||
| Caldwell | NJ | 2026-05-05 01:20 | ASOS | 59 | 44 | 59 | 29.83 | 0.00 | 0 | N | ||
| Caldwell | NJ | 2026-05-05 01:15 | ASOS | 59 | 44 | 59 | 29.84 | 0.00 | 0 | N | ||
| Caldwell | NJ | 2026-05-05 01:05 | ASOS | 61 | 44 | 55 | 29.84 | 0.00 | 0 | N | ||
| Caldwell | NJ | 2026-05-05 01:00 | ASOS | 61 | 44 | 55 | 29.84 | 0.00 | 0 | N | ||
| Caldwell | NJ | 2026-05-05 02:15 | ASOS | 55 | 44 | 67 | 29.83 | 0.00 | 3 | WNW | ||
| Caldwell | NJ | 2026-05-05 02:25 | ASOS | 55 | 44 | 67 | 29.83 | 0.00 | 0 | N | ||
| Caldwell | NJ | 2026-05-05 03:50 | ASOS | 54 | 45 | 71 | 29.84 | 0.00 | 0 | N | ||
| Caldwell | NJ | 2026-05-05 03:10 | ASOS | 54 | 45 | 71 | 29.83 | 0.00 | 0 | N | ||
| Caldwell | NJ | 2026-05-05 03:45 | ASOS | 52 | 45 | 76 | 29.83 | 0.00 | 0 | N | ||
| Caldwell | NJ | 2026-05-05 03:40 | ASOS | 52 | 46 | 82 | 29.84 | 0.00 | 0 | N | ||
| Caldwell | NJ | 2026-05-05 03:35 | ASOS | 52 | 46 | 82 | 29.84 | 0.00 | 0 | N | ||
| Caldwell | NJ | 2026-05-05 03:30 | ASOS | 54 | 46 | 77 | 29.83 | 0.00 | 0 | N | ||
| Caldwell | NJ | 2026-05-05 03:25 | ASOS | 54 | 46 | 77 | 29.83 | 0.00 | 0 | N | ||
| Caldwell | NJ | 2026-05-05 03:20 | ASOS | 54 | 46 | 77 | 29.83 | 0.00 | 0 | N | ||
| Caldwell | NJ | 2026-05-05 03:15 | ASOS | 54 | 46 | 77 | 29.83 | 0.00 | 0 | N | ||
| Caldwell | NJ | 2026-05-05 03:05 | ASOS | 54 | 45 | 71 | 29.83 | 0.00 | 0 | N | ||
| Caldwell | NJ | 2026-05-05 02:30 | ASOS | 54 | 45 | 71 | 29.84 | 0.00 | 0 | N | ||
| Caldwell | NJ | 2026-05-05 03:00 | ASOS | 54 | 45 | 71 | 29.83 | 0.00 | 0 | N | ||
| Caldwell | NJ | 2026-05-05 02:55 | ASOS | 54 | 45 | 71 | 29.83 | 0.00 | 0 | N | ||
| Caldwell | NJ | 2026-05-05 02:53 | ASOS | 54 | 45 | 72 | 29.82 | 0 | N | |||
| Caldwell | NJ | 2026-05-05 02:50 | ASOS | 54 | 45 | 71 | 29.83 | 0.00 | 0 | N | ||
| Caldwell | NJ | 2026-05-05 02:45 | ASOS | 54 | 45 | 71 | 29.83 | 0.00 | 0 | N | ||
| Caldwell | NJ | 2026-05-05 02:40 | ASOS | 54 | 45 | 71 | 29.83 | 0.00 | 3 | WNW | ||
| Caldwell | NJ | 2026-05-05 02:35 | ASOS | 54 | 45 | 71 | 29.83 | 0.00 | 0 | N | ||
| Caldwell | NJ | 2026-05-05 17:55 | ASOS | 0.00 |
data collection created in 0.052237033843994 (queried in 0.013838) rendered in: 0.00056099891662598

